Aeroporto :
LOGIN :

Iscrizione | Disclaimer

   EN    FR    IT 

 










Sommario :    VFR   VFR Marginale   IFR   IFR Intensivo   IFR Molto Intensivo
Visibilità : 
Base nubi : 
>= 8 km
>= 3000ft
5 / 8 km
1000 / 3000 ft
1500m / 5 km
500 / 1000 ft
800 / 1500m
200 / 500 ft
< 800m
< 200 ft
Simboli :   Temporali  Nebbia  Neve Forte  Precipitazioni Forti  Vento > 20 kt
SIGMETs :   Varie  Temporali  Ghiacco  Turbolenza  Onda orograficha  Ceneri Vulcaniche






- Altitudine del aeroporto : 230 ft


ETHB - Buckeburg Army

ULTIMO METAR :
  • 221134Z 25005KT 2300 -DZ BR BKN001 03/03 Q1034 RED AMB TEMPO RED

METARs OBSOLETI :
  • 221120Z 26005KT 2500 -DZ BR SCT001 BKN002 03/02 Q1035 AMB AMB
  • 221020Z 24006KT 4000 -DZ BR BKN002 03/02 Q1034 AMB YLO TEMPO RED
  • 220920Z 25006KT 2300 -DZ BR BKN001 02/02 Q1035 RED YLO TEMPO RED
  • 220908Z 25005KT 2500 -DZ BR BKN001 02/02 Q1034 RED YLO TEMPO RED

TAF COR TAF ETHB
Valido dal 22 a 12 ore il 22 a 21 ore UTC


221136Z 2212/2221 25006KT 3000 BR BKN002
TEMPO 2212/2213 25005KT 2000 BR BKN001
BECMG 2213/2215 26007KT 4000 BR SCT003 BKN005
TEMPO 2215/2217 24008KT 7000 NSW SCT007 BKN012
BECMG 2217/2219 23004KT 2000 BR SCT002 BKN004



MetMap, La meteo Aeronautica in un colpo d'occhio ! - Copyright ORBIFLY Dicembre 2007 - Disclaimer

ORBIFLY MET'MAP TEAM :

Programmazione e sviluppo : Alexandra Zaïnal
Concezione : Baudouin d'Aumeries
Aiuto per la programmazione : Marc-Olivier Méhu
Supporto tecnico e logistico : Manuel Goepfert
Aiuto per la traduzione : Arnaldo La Scala

Contatto : metmap@orbifly.com




FONTI E CREDITI :

   NOAA